createdAt,value
2022-11-24T00:04:44.626Z,26.70
2022-11-24T00:09:52.136Z,25.23
2022-11-24T00:14:57.130Z,23.70
2022-11-24T00:20:02.410Z,23.07
2022-11-24T00:25:10.881Z,25.70
2022-11-24T00:30:16.360Z,22.40
2022-11-24T00:35:21.428Z,25.03
2022-11-24T00:40:34.712Z,23.83
2022-11-24T00:45:40.069Z,21.13
2022-11-24T00:50:45.248Z,22.10
2022-11-24T00:55:54.919Z,22.70
2022-11-24T01:01:05.818Z,21.77
2022-11-24T01:06:12.733Z,23.23
2022-11-24T01:11:22.187Z,21.60
2022-11-24T01:16:29.212Z,21.83
2022-11-24T01:21:34.157Z,23.30
2022-11-24T01:26:42.363Z,22.07
2022-11-24T01:31:47.341Z,21.43
2022-11-24T01:36:52.313Z,20.60
2022-11-24T01:41:59.874Z,22.50
2022-11-24T01:47:08.780Z,22.40
2022-11-24T01:52:17.312Z,21.50
2022-11-24T01:57:28.208Z,20.37
2022-11-24T02:02:33.656Z,19.70
2022-11-24T02:07:41.919Z,21.50
2022-11-24T02:12:51.935Z,22.17
2022-11-24T02:17:57.059Z,20.93
2022-11-24T02:23:08.640Z,20.10
2022-11-24T02:28:21.186Z,21.80
2022-11-24T02:33:26.800Z,21.80
2022-11-24T02:38:34.230Z,19.17
2022-11-24T02:43:45.162Z,23.07
2022-11-24T02:48:50.220Z,22.33
2022-11-24T02:53:55.271Z,22.53
2022-11-24T02:59:02.986Z,22.10
2022-11-24T03:04:09.817Z,25.97
2022-11-24T03:09:14.904Z,26.30
2022-11-24T03:14:22.423Z,25.67
2022-11-24T03:19:27.507Z,26.87
2022-11-24T03:24:32.889Z,25.13
2022-11-24T03:29:40.710Z,24.93
2022-11-24T03:34:45.681Z,25.10
2022-11-24T03:39:50.837Z,24.40
2022-11-24T03:45:01.653Z,25.60
2022-11-24T03:50:17.043Z,25.33
2022-11-24T03:55:22.296Z,23.80
2022-11-24T04:00:30.531Z,24.47
2022-11-24T04:05:36.497Z,26.07
2022-11-24T04:10:42.555Z,25.77
2022-11-24T04:15:50.237Z,24.83
2022-11-24T04:20:55.676Z,23.57
2022-11-24T04:26:00.651Z,21.67
2022-11-24T04:31:09.244Z,23.40
2022-11-24T04:36:14.920Z,22.17
2022-11-24T04:41:19.932Z,21.93
2022-11-24T04:46:27.614Z,20.80
2022-11-24T04:51:32.895Z,22.17
2022-11-24T04:56:37.867Z,22.53
2022-11-24T05:01:46.719Z,21.90
2022-11-24T05:06:52.118Z,21.43
2022-11-24T05:11:57.380Z,21.13
2022-11-24T05:17:05.277Z,21.23
2022-11-24T05:22:11.620Z,22.73
2022-11-24T05:27:18.011Z,22.87
2022-11-24T05:32:26.060Z,21.53
2022-11-24T05:37:32.160Z,21.10
2022-11-24T05:42:47.041Z,20.83
2022-11-24T05:47:56.750Z,22.20
2022-11-24T05:53:05.183Z,22.27
2022-11-24T05:58:11.671Z,23.63
2022-11-24T06:03:19.345Z,21.33
2022-11-24T06:08:31.057Z,28.70
2022-11-24T06:13:39.300Z,29.77
2022-11-24T06:18:47.824Z,21.83
2022-11-24T06:23:54.000Z,22.40
2022-11-24T06:29:01.572Z,20.70
2022-11-24T06:34:15.428Z,26.10
2022-11-24T06:39:21.727Z,22.23
2022-11-24T06:44:27.218Z,23.53
2022-11-24T06:49:46.603Z,22.43
2022-11-24T06:54:51.823Z,22.80
2022-11-24T06:59:57.605Z,21.73
2022-11-24T07:05:08.079Z,24.07
2022-11-24T07:10:13.585Z,23.13
2022-11-24T07:15:20.979Z,22.20
2022-11-24T07:20:28.946Z,22.57
2022-11-24T07:25:33.926Z,22.90
2022-11-24T07:30:38.797Z,23.47
2022-11-24T07:35:46.917Z,24.60
2022-11-24T07:40:53.430Z,23.10
2022-11-24T07:46:01.762Z,23.97
2022-11-24T07:51:10.467Z,23.33
2022-11-24T07:56:24.025Z,21.30
2022-11-24T08:01:30.587Z,23.70
2022-11-24T08:06:44.602Z,23.37
2022-11-24T08:11:54.114Z,22.87
2022-11-24T08:17:00.407Z,21.33
2022-11-24T08:22:08.029Z,23.40
2022-11-24T08:27:12.943Z,23.07
2022-11-24T08:32:22.219Z,20.70
2022-11-24T08:37:32.716Z,22.00
2022-11-24T08:42:38.031Z,30.50
2022-11-24T08:47:42.948Z,24.27
2022-11-24T08:52:53.299Z,20.73
2022-11-24T08:57:58.207Z,21.50
2022-11-24T09:03:03.051Z,20.60
2022-11-24T09:08:10.722Z,19.30
2022-11-24T09:13:15.773Z,19.07
2022-11-24T09:18:20.706Z,20.87
2022-11-24T09:23:28.357Z,21.17
2022-11-24T09:28:33.298Z,20.10
2022-11-24T09:33:39.335Z,17.90
2022-11-24T09:38:46.989Z,17.83
2022-11-24T09:44:03.395Z,16.53
2022-11-24T09:49:15.870Z,16.37
2022-11-24T09:54:28.261Z,15.00
2022-11-24T09:59:33.466Z,15.70
2022-11-24T10:04:44.958Z,17.33
2022-11-24T10:10:02.888Z,16.27
2022-11-24T10:15:25.734Z,13.83
2022-11-24T10:20:44.764Z,18.77
2022-11-24T10:25:59.693Z,14.33
2022-11-24T10:31:20.678Z,15.37
2022-11-24T10:36:35.359Z,13.57
2022-11-24T10:41:53.555Z,13.70
2022-11-24T10:46:58.679Z,13.27
2022-11-24T10:52:10.252Z,11.90
2022-11-24T10:57:31.382Z,11.93
2022-11-24T11:02:45.491Z,15.50
2022-11-24T11:07:51.895Z,12.00
2022-11-24T11:13:00.408Z,9.77
2022-11-24T11:18:09.841Z,9.27
2022-11-24T11:23:27.463Z,10.17
2022-11-24T11:28:37.772Z,8.33
2022-11-24T11:39:08.246Z,6.93
2022-11-24T11:44:34.617Z,5.50
2022-11-24T11:49:42.237Z,4.90
2022-11-24T11:55:12.656Z,5.37
2022-11-24T12:00:28.394Z,5.40
2022-11-24T12:05:52.948Z,4.63
2022-11-24T12:11:10.320Z,5.30
2022-11-24T12:16:31.362Z,5.53
2022-11-24T12:21:44.583Z,5.33
2022-11-24T12:26:53.878Z,5.30
2022-11-24T12:32:15.913Z,6.33
2022-11-24T12:37:52.184Z,5.20
2022-11-24T12:43:06.238Z,5.70
2022-11-24T12:48:33.486Z,5.67
2022-11-24T12:53:44.500Z,5.50
2022-11-24T12:58:59.012Z,6.10
2022-11-24T13:04:15.790Z,6.73
2022-11-24T13:09:21.074Z,5.57
2022-11-24T13:14:34.894Z,5.27
2022-11-24T13:19:44.363Z,5.03
2022-11-24T13:25:14.710Z,6.13
2022-11-24T13:30:53.045Z,5.83
2022-11-24T13:36:36.748Z,5.10
2022-11-24T13:42:05.353Z,5.50
2022-11-24T13:47:32.309Z,5.50
2022-11-24T13:53:02.037Z,6.13
2022-11-24T13:58:35.133Z,5.47
2022-11-24T14:04:07.095Z,5.23
2022-11-24T14:09:29.062Z,5.73
2022-11-24T14:14:37.395Z,6.00
2022-11-24T14:19:47.156Z,5.83
2022-11-24T14:24:57.979Z,6.53
2022-11-24T14:30:21.357Z,5.10
2022-11-24T14:35:36.247Z,6.43
2022-11-24T14:40:43.794Z,7.03
2022-11-24T14:46:00.627Z,7.40
2022-11-24T14:51:21.247Z,7.13
2022-11-24T14:56:29.100Z,6.13
2022-11-24T15:01:38.481Z,6.60
2022-11-24T15:06:44.834Z,6.03
2022-11-24T15:11:50.851Z,6.50
2022-11-24T15:17:01.777Z,8.37
2022-11-24T15:22:39.292Z,8.07
2022-11-24T15:27:44.547Z,10.90
2022-11-24T15:32:57.778Z,9.47
2022-11-24T15:38:03.013Z,9.83
2022-11-24T15:43:21.707Z,9.20
2022-11-24T15:48:31.346Z,11.77
2022-11-24T15:53:40.650Z,11.10
2022-11-24T15:58:48.655Z,8.97
2022-11-24T16:03:56.921Z,10.33
2022-11-24T16:09:04.029Z,12.63
2022-11-24T16:14:09.653Z,9.00
2022-11-24T16:19:19.362Z,31.70
2022-11-24T16:24:25.562Z,33.13
2022-11-24T16:29:35.338Z,28.87
2022-11-24T16:34:45.850Z,17.63
2022-11-24T16:39:51.688Z,17.50
2022-11-24T16:45:00.118Z,18.00
2022-11-24T16:50:09.372Z,20.97
2022-11-24T16:55:14.414Z,21.87
2022-11-24T17:00:21.791Z,13.60
2022-11-24T17:05:29.523Z,11.83
2022-11-24T17:10:34.648Z,14.10
2022-11-24T17:15:46.214Z,12.33
2022-11-24T17:21:03.143Z,15.60
2022-11-24T17:26:17.022Z,17.93
2022-11-24T17:31:25.110Z,16.03
2022-11-24T17:36:35.087Z,14.83
2022-11-24T17:41:40.132Z,14.30
2022-11-24T17:46:45.136Z,12.57
2022-11-24T17:51:53.184Z,14.67
2022-11-24T17:56:58.190Z,12.10
2022-11-24T18:02:03.380Z,21.30
2022-11-24T18:07:12.181Z,30.33
2022-11-24T18:12:17.278Z,21.53
2022-11-24T18:17:22.254Z,21.87
2022-11-24T18:22:57.736Z,18.70
2022-11-24T18:27:59.047Z,19.07
2022-11-24T18:33:05.067Z,19.67
2022-11-24T18:38:13.364Z,16.33
2022-11-24T18:43:18.496Z,18.83
2022-11-24T18:48:24.450Z,17.80
2022-11-24T18:53:32.666Z,15.80
2022-11-24T18:58:38.840Z,13.40
2022-11-24T19:03:48.600Z,13.60
2022-11-24T19:08:58.807Z,14.20
2022-11-24T19:14:04.160Z,13.93
2022-11-24T19:19:09.717Z,13.97
2022-11-24T19:24:17.532Z,13.77
2022-11-24T19:29:22.576Z,14.77
2022-11-24T19:34:27.707Z,13.93
2022-11-24T19:39:37.104Z,26.90
2022-11-24T19:44:42.438Z,20.10
2022-11-24T19:49:47.915Z,21.03
2022-11-24T19:54:56.126Z,13.30
2022-11-24T20:00:01.808Z,15.50
2022-11-24T20:05:10.037Z,16.03
2022-11-24T20:10:18.337Z,15.63
2022-11-24T20:15:24.006Z,18.17
2022-11-24T20:20:29.538Z,19.17
2022-11-24T20:25:41.482Z,15.57
2022-11-24T20:30:46.917Z,17.40
2022-11-24T20:35:52.110Z,16.47
2022-11-24T20:41:08.764Z,16.60
2022-11-24T20:46:17.182Z,17.50
2022-11-24T20:51:24.731Z,15.47
2022-11-24T20:56:35.126Z,16.67
2022-11-24T21:01:42.599Z,18.67
2022-11-24T21:06:50.784Z,16.70
2022-11-24T21:11:58.482Z,18.90
2022-11-24T21:17:03.572Z,18.80
2022-11-24T21:22:08.464Z,18.47
2022-11-24T21:27:16.113Z,21.13
2022-11-24T21:32:21.143Z,18.70
2022-11-24T21:37:26.248Z,18.27
2022-11-24T21:42:33.939Z,20.47
2022-11-24T21:47:39.062Z,17.53
2022-11-24T21:52:44.064Z,18.73
2022-11-24T21:57:51.962Z,17.00
2022-11-24T22:02:57.656Z,18.13
2022-11-24T22:08:02.718Z,17.77
2022-11-24T22:13:10.599Z,16.57
2022-11-24T22:18:15.607Z,16.03
2022-11-24T22:23:20.646Z,15.73
2022-11-24T22:28:28.175Z,16.30
2022-11-24T22:33:33.404Z,16.57
2022-11-24T22:38:38.371Z,16.67
2022-11-24T22:43:47.097Z,19.97
2022-11-24T22:48:55.951Z,17.13
2022-11-24T22:54:03.128Z,18.33
2022-11-24T22:59:11.328Z,16.87
2022-11-24T23:04:16.487Z,19.00
2022-11-24T23:09:21.486Z,17.03
2022-11-24T23:14:29.429Z,17.10
2022-11-24T23:19:34.282Z,16.33
2022-11-24T23:24:39.301Z,14.13
2022-11-24T23:29:47.136Z,13.77
2022-11-24T23:34:52.121Z,13.23
2022-11-24T23:39:57.112Z,14.90
2022-11-24T23:45:05.911Z,13.27
2022-11-24T23:50:11.851Z,12.43
2022-11-24T23:55:17.463Z,13.83
